Time;durP1;ratioP1;P1;durP2;ratioP2;P2;SDS_P1;SDS_P2;PMS_P1;PMS_P2;Temp;Humidity;BMP_temperature;BMP_pressure;BME280_temperature;BME280_humidity;BME280_pressure;Samples;Min_cycle;Max_cycle;Signal;HPM_P1;HPM_P2
2024/03/16 00:01:47;;;;;;;7.38;2.20;;;12.70;94.80;;;;;;10228485;28;20248;-60
2024/03/16 00:06:50;;;;;;;7.15;2.47;;;12.70;95.00;;;;;;10226144;28;20210;-61
2024/03/16 00:11:54;;;;;;;5.57;2.08;;;12.70;94.90;;;;;;10237177;28;20310;-61
2024/03/16 00:16:58;;;;;;;4.97;1.77;;;12.70;94.90;;;;;;10228769;28;20290;-61
2024/03/16 00:22:02;;;;;;;4.25;1.75;;;12.70;94.90;;;;;;10229080;28;20279;-60
2024/03/16 00:27:07;;;;;;;2.35;1.55;;;12.70;94.90;;;;;;10228752;28;20212;-60
2024/03/16 00:32:11;;;;;;;4.38;1.98;;;12.70;94.90;;;;;;10253253;28;20360;-61
2024/03/16 00:37:15;;;;;;;5.30;1.85;;;12.70;94.90;;;;;;10226078;28;20286;-60
2024/03/16 00:42:19;;;;;;;4.82;2.08;;;12.70;95.00;;;;;;10228667;28;20218;-61
2024/03/16 00:47:23;;;;;;;3.65;1.63;;;12.60;94.80;;;;;;10241686;28;20290;-59
2024/03/16 00:52:27;;;;;;;4.82;2.15;;;12.60;94.90;;;;;;10227197;28;21427;-61
2024/03/16 00:57:31;;;;;;;4.50;1.63;;;12.60;95.00;;;;;;10226828;28;20255;-60
2024/03/16 01:02:34;;;;;;;4.28;1.63;;;12.50;95.20;;;;;;10228935;28;20313;-60
2024/03/16 01:07:38;;;;;;;4.13;1.60;;;12.40;95.00;;;;;;10229468;28;20991;-60
2024/03/16 01:12:42;;;;;;;4.38;1.52;;;12.40;95.00;;;;;;10229539;28;20237;-61
2024/03/16 01:17:46;;;;;;;2.13;1.42;;;12.50;95.10;;;;;;10227688;28;20822;-60
2024/03/16 01:22:50;;;;;;;3.85;1.55;;;12.50;94.90;;;;;;10229993;28;20310;-61
2024/03/16 01:27:54;;;;;;;4.03;1.55;;;12.50;95.10;;;;;;10227403;28;20291;-61
2024/03/16 01:32:58;;;;;;;2.78;1.23;;;12.40;95.00;;;;;;10202140;28;20279;-61
2024/03/16 01:38:01;;;;;;;4.65;1.38;;;12.40;94.90;;;;;;10229745;28;20209;-61
2024/03/16 01:43:05;;;;;;;5.43;1.42;;;12.50;94.90;;;;;;10226747;28;20230;-61
2024/03/16 01:48:10;;;;;;;4.05;1.45;;;12.50;95.10;;;;;;10233403;28;21789;-61
2024/03/16 01:53:14;;;;;;;6.30;1.55;;;12.50;95.00;;;;;;10234048;28;20233;-62
2024/03/16 01:58:17;;;;;;;4.38;1.38;;;12.50;95.10;;;;;;10240991;28;20217;-60
2024/03/16 02:03:21;;;;;;;5.25;1.60;;;12.50;95.10;;;;;;10231663;28;20735;-60
2024/03/16 02:08:27;;;;;;;5.70;1.52;;;12.50;95.10;;;;;;10247459;28;20220;-61
2024/03/16 02:13:31;;;;;;;7.20;1.50;;;12.40;95.20;;;;;;10233370;28;20240;-59
2024/03/16 02:18:35;;;;;;;4.53;1.40;;;12.40;95.10;;;;;;10240030;28;20213;-60
2024/03/16 02:23:39;;;;;;;3.72;1.40;;;12.40;95.20;;;;;;10235196;28;20248;-61
2024/03/16 02:28:43;;;;;;;6.35;1.70;;;12.40;95.00;;;;;;10233988;28;21376;-62
2024/03/16 02:33:47;;;;;;;5.40;1.75;;;12.40;95.20;;;;;;10233938;28;20721;-59
2024/03/16 02:38:50;;;;;;;6.35;1.80;;;12.40;95.20;;;;;;10234597;28;20201;-60
2024/03/16 02:43:54;;;;;;;5.97;1.50;;;12.40;95.10;;;;;;10233193;28;20338;-61
2024/03/16 02:48:58;;;;;;;6.28;1.65;;;12.40;95.20;;;;;;10191446;28;20216;-62
2024/03/16 02:54:02;;;;;;;7.95;1.80;;;12.40;95.20;;;;;;10231735;28;20236;-62
2024/03/16 02:59:05;;;;;;;7.97;1.70;;;12.40;95.30;;;;;;10231383;28;20327;-60
2024/03/16 03:04:09;;;;;;;5.93;1.42;;;12.40;95.30;;;;;;10234507;28;20220;-62
2024/03/16 03:09:13;;;;;;;5.85;1.80;;;12.30;95.30;;;;;;10231990;28;20205;-60
2024/03/16 03:14:17;;;;;;;7.03;1.83;;;12.30;95.20;;;;;;10230644;28;20241;-60
2024/03/16 03:19:21;;;;;;;7.32;1.77;;;12.30;95.30;;;;;;10245414;28;20296;-62
2024/03/16 03:24:25;;;;;;;5.75;2.38;;;12.40;95.40;;;;;;10229446;28;20259;-60
2024/03/16 03:29:28;;;;;;;7.65;3.30;;;12.40;95.50;;;;;;10227764;28;21030;-60
2024/03/16 03:34:32;;;;;;;8.00;3.40;;;12.30;95.90;;;;;;10243793;28;20233;-60
2024/03/16 03:39:36;;;;;;;6.25;3.28;;;12.30;95.80;;;;;;10231120;28;20209;-61
2024/03/16 03:44:49;;;;;;;6.47;3.50;;;12.30;96.30;;;;;;10229854;28;20233;-60
2024/03/16 03:49:53;;;;;;;7.20;3.58;;;12.30;96.60;;;;;;10231116;28;20213;-61
2024/03/16 03:54:57;;;;;;;6.50;3.55;;;12.20;96.50;;;;;;10246780;28;20233;-60
2024/03/16 04:00:01;;;;;;;7.72;3.85;;;12.20;96.50;;;;;;10229490;28;20209;-62
2024/03/16 04:05:05;;;;;;;7.22;4.28;;;12.10;96.90;;;;;;10227621;28;20593;-60
2024/03/16 04:10:08;;;;;;;12.02;4.90;;;12.10;96.90;;;;;;10237703;28;20268;-61
2024/03/16 04:15:12;;;;;;;8.82;5.60;;;12.10;97.30;;;;;;10229070;28;20485;-60
2024/03/16 04:20:16;;;;;;;11.57;5.60;;;12.10;96.80;;;;;;10228799;28;20290;-61
2024/03/16 04:25:21;;;;;;;8.73;5.85;;;12.10;96.90;;;;;;10226577;28;20718;-61
2024/03/16 04:30:26;;;;;;;9.98;6.45;;;12.10;97.20;;;;;;10226703;28;20267;-61
2024/03/16 04:35:30;;;;;;;9.38;6.13;;;12.00;97.50;;;;;;10242068;28;20229;-62
2024/03/16 04:40:34;;;;;;;9.10;6.63;;;12.00;97.90;;;;;;10225027;28;20210;-61
2024/03/16 04:45:37;;;;;;;13.50;7.75;;;12.00;97.30;;;;;;10234656;28;20343;-60
2024/03/16 04:50:41;;;;;;;12.77;7.55;;;12.00;97.30;;;;;;10227028;28;21799;-62
2024/03/16 04:55:45;;;;;;;12.27;8.15;;;12.00;97.70;;;;;;10231425;28;20249;-60
2024/03/16 05:00:48;;;;;;;11.23;8.82;;;12.00;97.70;;;;;;10223317;28;21056;-59
2024/03/16 05:05:52;;;;;;;13.20;9.52;;;12.00;98.10;;;;;;10243907;28;20213;-59
2024/03/16 05:10:58;;;;;;;13.45;10.25;;;12.00;98.10;;;;;;10223562;28;20240;-62
2024/03/16 05:16:07;;;;;;;12.00;9.80;;;11.90;98.20;;;;;;10226598;28;21345;-62
2024/03/16 05:21:12;;;;;;;15.50;11.52;;;11.90;97.90;;;;;;10228428;28;20877;-60
2024/03/16 05:26:17;;;;;;;15.77;10.80;;;11.90;98.50;;;;;;10246746;28;20264;-62
2024/03/16 05:31:20;;;;;;;17.33;11.85;;;11.90;98.40;;;;;;10256831;28;20275;-61
2024/03/16 05:36:24;;;;;;;16.25;11.65;;;11.90;98.50;;;;;;10232290;28;20205;-62
2024/03/16 05:41:28;;;;;;;13.48;11.15;;;11.90;98.50;;;;;;10231360;28;20225;-61
2024/03/16 05:46:31;;;;;;;17.85;12.30;;;11.90;98.50;;;;;;10239442;28;20651;-61
2024/03/16 05:51:35;;;;;;;20.23;12.70;;;11.90;98.40;;;;;;10233245;28;21244;-62
2024/03/16 05:56:39;;;;;;;15.95;12.45;;;11.90;99.30;;;;;;10245441;28;20287;-61
2024/03/16 06:01:43;;;;;;;14.02;8.95;;;11.80;99.20;;;;;;10248432;28;21493;-62
2024/03/16 06:06:47;;;;;;;10.13;6.20;;;11.80;98.90;;;;;;10233647;28;20208;-61
2024/03/16 06:11:51;;;;;;;11.83;6.87;;;11.80;98.80;;;;;;10240030;28;20456;-60
2024/03/16 06:16:54;;;;;;;12.32;6.85;;;11.80;98.80;;;;;;10236120;28;20217;-60
2024/03/16 06:21:58;;;;;;;8.07;4.53;;;11.80;98.40;;;;;;10233805;28;20256;-61
2024/03/16 06:27:05;;;;;;;8.70;5.22;;;11.60;98.20;;;;;;10232407;28;20200;-61
2024/03/16 06:32:09;;;;;;;10.10;6.03;;;11.50;98.40;;;;;;10232369;28;22230;-61
2024/03/16 06:37:13;;;;;;;7.70;5.88;;;11.50;98.40;;;;;;10224857;28;20585;-62
2024/03/16 06:42:16;;;;;;;7.72;5.38;;;11.50;98.40;;;;;;10217872;28;20225;-61
2024/03/16 06:47:20;;;;;;;8.50;4.80;;;11.40;98.10;;;;;;10231228;28;20212;-61
2024/03/16 06:52:25;;;;;;;5.80;4.75;;;11.40;98.00;;;;;;10240655;28;21599;-62
2024/03/16 06:57:29;;;;;;;5.30;4.07;;;11.30;98.00;;;;;;10187176;28;20209;-62
2024/03/16 07:02:32;;;;;;;4.70;3.95;;;11.30;98.00;;;;;;10216240;28;20272;-61
2024/03/16 07:07:36;;;;;;;4.25;3.55;;;11.30;98.10;;;;;;10228128;28;21524;-62
2024/03/16 07:12:40;;;;;;;4.13;3.08;;;11.30;98.00;;;;;;10248803;28;20736;-61
2024/03/16 07:17:44;;;;;;;4.80;3.17;;;11.30;97.80;;;;;;10228670;28;20213;-60
2024/03/16 07:22:47;;;;;;;3.50;3.20;;;11.30;97.80;;;;;;10217919;28;20245;-62
2024/03/16 07:27:51;;;;;;;3.35;2.17;;;11.30;97.70;;;;;;10233049;28;20296;-61
2024/03/16 07:32:56;;;;;;;3.33;1.83;;;11.40;97.90;;;;;;10240583;28;20296;-62
2024/03/16 07:37:59;;;;;;;3.08;1.80;;;11.40;97.60;;;;;;10231578;28;20571;-60
2024/03/16 07:43:03;;;;;;;3.20;2.13;;;11.40;97.40;;;;;;10217013;28;21552;-61
2024/03/16 07:48:07;;;;;;;3.35;2.20;;;11.40;97.30;;;;;;10239836;28;20209;-61
2024/03/16 07:53:11;;;;;;;5.47;2.30;;;11.40;97.10;;;;;;10240069;28;20229;-61
2024/03/16 07:58:15;;;;;;;3.50;2.22;;;11.40;97.00;;;;;;10220101;28;20616;-62
2024/03/16 08:03:19;;;;;;;3.20;1.60;;;11.30;97.10;;;;;;10212874;28;20222;-61
2024/03/16 08:08:22;;;;;;;4.88;1.63;;;11.30;96.60;;;;;;10225452;28;20220;-61
2024/03/16 08:13:27;;;;;;;2.45;1.40;;;11.30;96.50;;;;;;10239196;28;21007;-62
2024/03/16 08:18:31;;;;;;;3.40;1.63;;;11.30;96.50;;;;;;10221888;28;20205;-62
2024/03/16 08:23:35;;;;;;;3.42;1.83;;;11.30;96.30;;;;;;10204342;28;20225;-62
2024/03/16 08:28:38;;;;;;;4.70;1.80;;;11.30;96.30;;;;;;10223353;28;20205;-61
2024/03/16 08:33:42;;;;;;;2.03;1.50;;;11.30;96.10;;;;;;10231222;28;21551;-62
2024/03/16 08:38:46;;;;;;;3.83;1.40;;;11.20;96.00;;;;;;10218255;28;20299;-62
2024/03/16 08:43:50;;;;;;;4.50;1.88;;;11.20;96.20;;;;;;10206444;28;20239;-62
2024/03/16 08:48:54;;;;;;;5.20;1.00;;;11.20;95.90;;;;;;10226322;28;20762;-61
2024/03/16 08:53:57;;;;;;;1.90;0.82;;;11.20;95.00;;;;;;10230228;28;20282;-60
2024/03/16 08:59:02;;;;;;;1.67;0.93;;;11.10;95.20;;;;;;10214064;28;20280;-61
2024/03/16 09:04:08;;;;;;;6.75;1.00;;;11.20;95.30;;;;;;10207253;28;20233;-64
2024/03/16 09:09:12;;;;;;;4.70;1.35;;;11.20;95.20;;;;;;10225531;28;20221;-60
2024/03/16 09:14:15;;;;;;;3.60;1.50;;;11.30;95.30;;;;;;10229601;28;20237;-60
2024/03/16 09:19:19;;;;;;;1.98;0.90;;;11.30;94.90;;;;;;10212041;28;20218;-60
2024/03/16 09:24:23;;;;;;;2.58;1.02;;;11.20;94.80;;;;;;10218850;28;20220;-61
2024/03/16 09:29:27;;;;;;;2.88;1.15;;;11.30;94.70;;;;;;10186175;28;20204;-60
2024/03/16 09:34:30;;;;;;;2.45;1.00;;;11.20;94.70;;;;;;10231305;28;20236;-62
2024/03/16 09:39:34;;;;;;;3.10;1.02;;;11.20;94.50;;;;;;10182015;28;20213;-63
2024/03/16 09:44:38;;;;;;;4.43;1.00;;;11.20;94.10;;;;;;10220420;28;20228;-61
2024/03/16 09:49:41;;;;;;;2.72;1.10;;;11.20;93.90;;;;;;10227441;28;20209;-63
2024/03/16 09:54:45;;;;;;;4.40;1.00;;;11.20;93.70;;;;;;10235134;28;20584;-61
2024/03/16 09:59:48;;;;;;;4.10;0.75;;;11.20;93.20;;;;;;10193766;28;20237;-62
2024/03/16 10:04:51;;;;;;;2.08;0.88;;;11.30;93.30;;;;;;10194400;28;20233;-60
2024/03/16 10:09:55;;;;;;;5.22;1.20;;;11.40;93.20;;;;;;10239762;28;21517;-63
2024/03/16 10:15:08;;;;;;;4.95;1.20;;;11.50;93.00;;;;;;10239878;28;20865;-61
2024/03/16 10:20:16;;;;;;;3.45;1.25;;;11.70;92.90;;;;;;10214005;28;20213;-61
2024/03/16 10:25:19;;;;;;;5.20;1.40;;;11.70;92.10;;;;;;10219577;28;20327;-62
2024/03/16 10:30:23;;;;;;;3.75;1.45;;;11.60;92.20;;;;;;10224471;28;20273;-61
2024/03/16 10:35:33;;;;;;;3.83;0.90;;;11.60;91.70;;;;;;10241006;28;20705;-62
2024/03/16 10:40:37;;;;;;;3.25;0.80;;;11.50;92.00;;;;;;10212528;28;20268;-61
2024/03/16 10:45:45;;;;;;;3.67;0.82;;;11.40;91.70;;;;;;10204939;28;20213;-62
2024/03/16 10:50:48;;;;;;;4.22;1.27;;;11.50;91.30;;;;;;10228489;28;20282;-62
2024/03/16 10:55:51;;;;;;;2.15;0.65;;;11.60;91.20;;;;;;10246556;28;20371;-62
2024/03/16 11:00:55;;;;;;;1.75;0.60;;;11.70;91.40;;;;;;10204259;28;20233;-60
2024/03/16 11:06:01;;;;;;;2.53;0.70;;;11.70;91.20;;;;;;10207007;28;20209;-62
2024/03/16 11:11:04;;;;;;;2.47;0.80;;;11.70;90.80;;;;;;10232675;28;21692;-60
2024/03/16 11:16:26;;;;;;;2.40;0.80;;;11.70;90.80;;;;;;10217561;28;20291;-65
2024/03/16 11:21:30;;;;;;;1.80;0.80;;;11.70;90.20;;;;;;10203744;28;20233;-61
2024/03/16 11:26:43;;;;;;;1.65;0.60;;;11.60;90.20;;;;;;10210637;28;20260;-61
2024/03/16 11:31:48;;;;;;;2.90;0.98;;;11.50;89.50;;;;;;10243665;28;20232;-62
2024/03/16 11:36:51;;;;;;;2.72;0.90;;;11.40;90.20;;;;;;10219586;28;20233;-63
2024/03/16 11:41:54;;;;;;;3.72;0.68;;;11.30;90.00;;;;;;10198658;28;20352;-62
2024/03/16 11:46:57;;;;;;;3.35;0.95;;;11.30;90.00;;;;;;10208016;28;20218;-62
2024/03/16 11:52:00;;;;;;;4.07;1.00;;;11.50;90.40;;;;;;10226374;28;20241;-60
2024/03/16 11:57:03;;;;;;;1.90;0.80;;;11.70;90.70;;;;;;10215644;28;21590;-61
2024/03/16 12:02:05;;;;;;;3.33;1.15;;;12.00;90.90;;;;;;10216241;28;20233;-61
2024/03/16 12:07:09;;;;;;;4.25;1.40;;;12.20;90.90;;;;;;10215375;28;20282;-61
2024/03/16 12:12:12;;;;;;;3.17;1.20;;;12.30;90.70;;;;;;10229657;28;20234;-63
2024/03/16 12:17:15;;;;;;;4.05;0.95;;;12.30;90.00;;;;;;10220442;28;20233;-61
2024/03/16 12:22:17;;;;;;;2.88;1.08;;;12.20;89.70;;;;;;10210231;28;20225;-61
2024/03/16 12:27:20;;;;;;;2.67;0.90;;;12.10;90.10;;;;;;10215622;28;20305;-61
2024/03/16 12:32:23;;;;;;;3.70;0.85;;;12.10;90.30;;;;;;10219861;28;20768;-63
2024/03/16 12:37:26;;;;;;;3.13;1.10;;;12.20;90.10;;;;;;10209029;28;20782;-61
2024/03/16 12:42:29;;;;;;;2.95;1.10;;;12.30;90.10;;;;;;10202958;28;20237;-61
2024/03/16 12:47:32;;;;;;;3.53;1.10;;;12.30;90.30;;;;;;10208708;28;21337;-63
2024/03/16 12:52:35;;;;;;;3.65;0.95;;;12.30;89.80;;;;;;10218974;28;20233;-61
2024/03/16 12:57:37;;;;;;;3.30;1.45;;;12.30;89.30;;;;;;10214757;28;20785;-63
2024/03/16 13:02:40;;;;;;;3.83;1.33;;;12.20;88.80;;;;;;10208780;28;20241;-62
2024/03/16 13:07:43;;;;;;;4.07;1.35;;;12.20;88.60;;;;;;10210025;28;20375;-61
2024/03/16 13:12:46;;;;;;;5.05;1.50;;;12.10;88.60;;;;;;10216799;28;20656;-60
2024/03/16 13:17:49;;;;;;;5.43;1.70;;;12.10;88.20;;;;;;10207753;28;21620;-60
2024/03/16 13:22:51;;;;;;;4.93;1.60;;;12.10;88.80;;;;;;10194286;28;21337;-61
2024/03/16 13:27:54;;;;;;;5.88;1.38;;;12.30;88.60;;;;;;10205812;28;20213;-61
2024/03/16 13:32:57;;;;;;;4.32;1.50;;;12.40;87.50;;;;;;10233625;28;20221;-61
2024/03/16 13:37:59;;;;;;;3.70;1.10;;;12.40;88.00;;;;;;10202506;28;22110;-60
2024/03/16 13:43:02;;;;;;;3.92;1.20;;;12.50;86.90;;;;;;10207613;28;20236;-61
2024/03/16 13:48:05;;;;;;;6.38;1.50;;;12.50;87.00;;;;;;10216814;28;20206;-62
2024/03/16 13:53:08;;;;;;;3.78;1.48;;;12.50;86.30;;;;;;10222705;28;20586;-61
2024/03/16 13:58:11;;;;;;;4.00;1.42;;;12.30;86.80;;;;;;10212040;28;20256;-62
2024/03/16 14:03:19;;;;;;;5.47;1.55;;;12.30;85.90;;;;;;10206274;28;20233;-62
2024/03/16 14:08:22;;;;;;;4.90;1.23;;;12.30;86.40;;;;;;10229444;28;20213;-62
2024/03/16 14:13:25;;;;;;;2.83;1.20;;;12.60;85.40;;;;;;10236345;28;20288;-62
2024/03/16 14:18:27;;;;;;;3.30;1.40;;;12.60;84.50;;;;;;10210477;28;20306;-61
2024/03/16 14:23:30;;;;;;;3.42;1.52;;;12.80;84.20;;;;;;10218301;28;20233;-62
2024/03/16 14:28:33;;;;;;;4.32;1.13;;;12.80;81.80;;;;;;10229630;28;20213;-61
2024/03/16 14:33:38;;;;;;;4.40;1.40;;;12.70;80.10;;;;;;10235781;28;20237;-61
2024/03/16 14:38:42;;;;;;;2.60;1.00;;;12.80;84.20;;;;;;10212024;28;20667;-60
2024/03/16 14:43:44;;;;;;;2.58;1.08;;;13.10;83.80;;;;;;10222272;28;20244;-60
2024/03/16 14:48:47;;;;;;;5.07;1.20;;;13.10;81.20;;;;;;10213138;28;20206;-67
2024/03/16 14:53:50;;;;;;;3.13;0.95;;;13.10;80.00;;;;;;10216568;28;20248;-67
2024/03/16 14:58:52;;;;;;;3.30;0.93;;;13.00;78.20;;;;;;10209249;28;20229;-69
2024/03/16 15:03:56;;;;;;;3.90;1.25;;;12.90;78.10;;;;;;10203609;28;20237;-68
2024/03/16 15:08:59;;;;;;;4.38;1.20;;;12.70;75.20;;;;;;10225359;28;20210;-69
2024/03/16 15:14:05;;;;;;;6.35;1.85;;;12.50;74.00;;;;;;10264662;28;20233;-67
2024/03/16 15:19:08;;;;;;;4.68;1.10;;;12.40;74.10;;;;;;10208896;28;20658;-67
2024/03/16 15:24:12;;;;;;;4.80;1.23;;;12.20;75.30;;;;;;10201256;28;20780;-67
2024/03/16 15:29:14;;;;;;;3.85;1.20;;;12.20;76.90;;;;;;10226536;28;20282;-66
2024/03/16 15:34:17;;;;;;;3.20;1.17;;;12.20;78.10;;;;;;10226101;28;21208;-67
2024/03/16 15:39:20;;;;;;;5.22;1.45;;;12.10;77.00;;;;;;10235250;28;20388;-67
2024/03/16 15:44:23;;;;;;;4.93;1.50;;;12.10;77.60;;;;;;10202387;28;20902;-67
2024/03/16 15:49:26;;;;;;;3.53;1.52;;;12.00;78.10;;;;;;10226862;28;20209;-67
2024/03/16 15:54:29;;;;;;;6.22;1.83;;;12.10;79.10;;;;;;10221094;28;20283;-66
2024/03/16 15:59:32;;;;;;;6.43;1.40;;;12.10;79.70;;;;;;10201896;28;20264;-67
2024/03/16 16:04:35;;;;;;;4.25;1.52;;;12.10;79.40;;;;;;10207965;28;20229;-67
2024/03/16 16:09:38;;;;;;;4.18;1.70;;;12.10;80.20;;;;;;10221790;28;20210;-66
2024/03/16 16:14:40;;;;;;;7.05;2.20;;;12.10;79.20;;;;;;10242497;28;20306;-66
2024/03/16 16:19:44;;;;;;;5.60;1.95;;;12.00;78.20;;;;;;10205041;28;20208;-66
2024/03/16 16:24:47;;;;;;;8.00;2.53;;;11.90;78.10;;;;;;10215098;28;20233;-66
2024/03/16 16:29:50;;;;;;;5.63;2.50;;;11.80;79.00;;;;;;10234107;28;20209;-66
2024/03/16 16:34:53;;;;;;;6.97;2.97;;;11.80;79.80;;;;;;10219007;28;20229;-66
2024/03/16 16:39:55;;;;;;;4.97;2.63;;;11.80;79.40;;;;;;10200953;28;20271;-66
2024/03/16 16:45:00;;;;;;;8.48;2.50;;;11.80;79.10;;;;;;10211248;28;20233;-68
2024/03/16 16:50:03;;;;;;;6.07;2.20;;;11.80;79.80;;;;;;10225049;28;20216;-66
2024/03/16 16:55:06;;;;;;;8.15;2.67;;;11.80;79.20;;;;;;10217691;28;20225;-66
2024/03/16 17:00:10;;;;;;;5.13;2.33;;;11.80;78.80;;;;;;10210589;28;21840;-68
2024/03/16 17:05:13;;;;;;;3.38;1.92;;;11.70;78.90;;;;;;10206184;28;20228;-66
2024/03/16 17:10:17;;;;;;;6.53;2.13;;;11.70;78.50;;;;;;10216818;28;20291;-66
2024/03/16 17:15:19;;;;;;;5.03;2.30;;;11.70;78.30;;;;;;10223274;28;20275;-67
2024/03/16 17:20:25;;;;;;;3.75;2.05;;;11.60;77.30;;;;;;10201509;28;20209;-68
2024/03/16 17:25:28;;;;;;;8.88;2.20;;;11.60;78.30;;;;;;10205145;28;20237;-68
2024/03/16 17:30:34;;;;;;;5.72;2.35;;;11.60;78.30;;;;;;10227709;28;20362;-67
2024/03/16 17:35:36;;;;;;;6.45;2.40;;;11.50;77.70;;;;;;10234995;28;20303;-68
2024/03/16 17:40:39;;;;;;;5.75;1.85;;;11.40;79.10;;;;;;10219129;28;20221;-68
2024/03/16 17:45:42;;;;;;;8.32;4.30;;;11.40;78.40;;;;;;10204667;28;20304;-68
2024/03/16 17:50:45;;;;;;;7.95;2.60;;;11.40;78.80;;;;;;10232907;28;20220;-67
2024/03/16 17:55:48;;;;;;;6.88;2.70;;;11.40;78.50;;;;;;10226197;28;20284;-67
2024/03/16 18:00:50;;;;;;;6.35;2.75;;;11.40;78.80;;;;;;10195277;28;20327;-66
2024/03/16 18:05:53;;;;;;;6.60;3.35;;;11.40;79.00;;;;;;10188478;28;21444;-65
2024/03/16 18:10:56;;;;;;;8.45;3.17;;;11.50;76.10;;;;;;10224599;28;21489;-65
2024/03/16 18:15:59;;;;;;;5.05;2.40;;;11.60;78.20;;;;;;10222847;28;20229;-62
2024/03/16 18:21:02;;;;;;;5.47;2.80;;;11.60;78.90;;;;;;10225031;28;20229;-67
2024/03/16 18:26:06;;;;;;;6.88;2.80;;;11.50;79.30;;;;;;10226417;28;20205;-65
2024/03/16 18:31:10;;;;;;;4.13;2.30;;;11.50;79.00;;;;;;10255783;28;20237;-65
2024/03/16 18:36:13;;;;;;;10.45;3.20;;;11.40;77.90;;;;;;10249435;28;20230;-65
2024/03/16 18:41:17;;;;;;;9.27;2.53;;;11.40;79.10;;;;;;10230329;28;20311;-65
2024/03/16 18:46:20;;;;;;;5.35;2.58;;;11.40;78.60;;;;;;10238845;28;20217;-66
2024/03/16 18:51:23;;;;;;;6.18;3.78;;;11.40;79.10;;;;;;10255356;28;20233;-62
2024/03/16 18:56:27;;;;;;;9.48;4.35;;;11.40;79.30;;;;;;10246591;28;21160;-62
2024/03/16 19:01:29;;;;;;;11.25;4.45;;;11.30;79.40;;;;;;10231995;28;20789;-62
2024/03/16 19:06:32;;;;;;;7.75;4.32;;;11.30;79.40;;;;;;10238667;28;20311;-61
2024/03/16 19:11:36;;;;;;;6.45;3.40;;;11.30;79.50;;;;;;10256181;28;20251;-61
2024/03/16 19:16:40;;;;;;;7.97;5.32;;;11.30;79.80;;;;;;10248698;28;20292;-60
2024/03/16 19:21:42;;;;;;;9.85;5.43;;;11.30;79.80;;;;;;10233424;28;20604;-61
2024/03/16 19:26:47;;;;;;;6.07;4.10;;;11.20;79.70;;;;;;10236713;28;20214;-61
2024/03/16 19:31:50;;;;;;;11.18;4.18;;;11.20;79.70;;;;;;10262286;28;20328;-63
2024/03/16 19:36:54;;;;;;;8.30;4.63;;;11.20;79.80;;;;;;10247276;28;20848;-61
2024/03/16 19:41:58;;;;;;;8.50;4.97;;;11.20;80.00;;;;;;10228933;28;20260;-60
2024/03/16 19:47:00;;;;;;;5.68;3.67;;;11.20;79.80;;;;;;10239863;28;20306;-62
2024/03/16 19:52:03;;;;;;;7.15;4.20;;;11.20;80.10;;;;;;10253074;28;20312;-60
2024/03/16 19:57:08;;;;;;;9.90;4.68;;;11.10;79.90;;;;;;10244886;28;20271;-63
2024/03/16 20:02:10;;;;;;;8.38;4.43;;;11.10;79.90;;;;;;10229658;28;20228;-63
2024/03/16 20:07:13;;;;;;;11.43;5.35;;;11.10;80.20;;;;;;10239173;28;20206;-62
2024/03/16 20:12:17;;;;;;;9.02;5.95;;;11.00;80.00;;;;;;10249200;28;20315;-62
2024/03/16 20:17:20;;;;;;;8.90;6.20;;;11.00;80.10;;;;;;10244373;28;22144;-63
2024/03/16 20:22:22;;;;;;;10.45;5.78;;;11.00;80.10;;;;;;10229159;28;20291;-62
2024/03/16 20:27:28;;;;;;;10.55;6.78;;;11.00;80.10;;;;;;10239226;28;20318;-61
2024/03/16 20:32:31;;;;;;;12.70;7.15;;;10.90;80.10;;;;;;10253186;28;20287;-60
2024/03/16 20:37:34;;;;;;;12.40;8.20;;;10.90;80.00;;;;;;10225346;28;20240;-62
2024/03/16 20:42:38;;;;;;;12.48;8.32;;;10.90;79.70;;;;;;10228745;28;20310;-63
2024/03/16 20:47:42;;;;;;;12.20;8.60;;;10.80;79.90;;;;;;10239906;28;20255;-61
2024/03/16 20:52:45;;;;;;;12.35;8.13;;;10.70;79.70;;;;;;10252698;28;20229;-61
2024/03/16 20:57:51;;;;;;;9.73;7.93;;;10.70;79.90;;;;;;10244337;28;20853;-61
2024/03/16 21:02:57;;;;;;;13.65;8.50;;;10.60;79.80;;;;;;10251832;28;22148;-62
2024/03/16 21:08:03;;;;;;;11.38;7.50;;;10.50;79.40;;;;;;10248684;28;20245;-61
2024/03/16 21:13:08;;;;;;;12.60;7.43;;;10.50;79.60;;;;;;10258794;28;20225;-61
2024/03/16 21:18:11;;;;;;;13.63;8.45;;;10.40;79.50;;;;;;10246642;28;20298;-62
2024/03/16 21:23:14;;;;;;;10.57;6.75;;;10.40;79.50;;;;;;10233024;28;21815;-63
2024/03/16 21:28:19;;;;;;;10.80;6.72;;;10.30;79.50;;;;;;10246371;28;20201;-62
2024/03/16 21:33:22;;;;;;;8.65;6.82;;;10.30;79.70;;;;;;10256260;28;20229;-62
2024/03/16 21:38:24;;;;;;;9.68;6.93;;;10.30;79.90;;;;;;10242682;28;20303;-61
2024/03/16 21:43:28;;;;;;;8.65;6.65;;;10.20;80.00;;;;;;10233859;28;20253;-59
2024/03/16 21:48:31;;;;;;;11.23;7.33;;;10.20;80.00;;;;;;10249594;28;20206;-66
2024/03/16 21:53:35;;;;;;;11.70;7.60;;;10.10;80.00;;;;;;10257284;28;20335;-61
2024/03/16 21:58:39;;;;;;;11.40;7.50;;;10.10;80.20;;;;;;10257579;28;20762;-62
2024/03/16 22:03:44;;;;;;;14.00;9.00;;;10.00;80.10;;;;;;10259131;28;20291;-62
2024/03/16 22:08:46;;;;;;;10.50;7.85;;;10.00;80.20;;;;;;10265841;28;20205;-61
2024/03/16 22:13:51;;;;;;;14.70;8.37;;;9.90;81.20;;;;;;10261572;28;22184;-62
2024/03/16 22:18:53;;;;;;;10.45;7.30;;;9.90;81.30;;;;;;10268336;28;20251;-62
2024/03/16 22:23:56;;;;;;;11.10;6.97;;;9.80;81.30;;;;;;10262837;28;20229;-62
2024/03/16 22:29:00;;;;;;;10.15;6.07;;;9.80;81.30;;;;;;10264308;28;20197;-62
2024/03/16 22:34:03;;;;;;;8.45;5.60;;;9.70;81.20;;;;;;10261814;28;20237;-63
2024/03/16 22:39:09;;;;;;;9.80;5.63;;;9.70;81.00;;;;;;10269567;28;20263;-60
2024/03/16 22:44:13;;;;;;;10.20;6.72;;;9.70;81.10;;;;;;10263741;28;20249;-62
2024/03/16 22:49:15;;;;;;;12.68;7.32;;;9.60;81.00;;;;;;10264619;28;20209;-62
2024/03/16 22:54:18;;;;;;;10.07;6.70;;;9.60;81.20;;;;;;10266562;28;20233;-62
2024/03/16 22:59:23;;;;;;;9.50;7.05;;;9.50;81.30;;;;;;10260947;28;20307;-61
2024/03/16 23:04:26;;;;;;;11.20;7.00;;;9.50;81.50;;;;;;10260758;28;20233;-61
2024/03/16 23:09:29;;;;;;;10.88;7.13;;;9.50;81.60;;;;;;10267534;28;20276;-62
2024/03/16 23:14:33;;;;;;;9.60;7.03;;;9.50;81.70;;;;;;10263527;28;20264;-60
2024/03/16 23:19:37;;;;;;;10.18;6.57;;;9.40;81.70;;;;;;10258707;28;20268;-59
2024/03/16 23:24:40;;;;;;;10.82;5.55;;;9.40;81.80;;;;;;10263867;28;20306;-60
2024/03/16 23:29:44;;;;;;;8.10;5.57;;;9.40;81.80;;;;;;10259717;28;20202;-61
2024/03/16 23:34:47;;;;;;;9.30;4.63;;;9.30;81.90;;;;;;10261222;28;21728;-61
2024/03/16 23:39:49;;;;;;;8.40;4.37;;;9.20;81.70;;;;;;10262804;28;20237;-59
2024/03/16 23:44:53;;;;;;;8.17;4.37;;;9.20;81.70;;;;;;10267217;28;20264;-60
2024/03/16 23:49:56;;;;;;;8.23;4.47;;;9.10;81.80;;;;;;10263188;28;20292;-61
2024/03/16 23:54:59;;;;;;;9.27;5.13;;;9.10;82.00;;;;;;10265409;28;20233;-62
